createdAt,value
2022-09-22T00:01:22.583Z,2.42
2022-09-22T00:03:52.100Z,2.55
2022-09-22T00:06:24.493Z,2.90
2022-09-22T00:08:54.553Z,2.67
2022-09-22T00:11:25.365Z,2.70
2022-09-22T00:13:56.035Z,2.67
2022-09-22T00:16:26.913Z,2.78
2022-09-22T00:18:55.436Z,2.85
2022-09-22T00:21:27.811Z,2.47
2022-09-22T00:23:56.431Z,2.88
2022-09-22T00:26:25.571Z,2.83
2022-09-22T00:28:53.447Z,2.55
2022-09-22T00:31:23.911Z,2.50
2022-09-22T00:33:52.778Z,2.70
2022-09-22T00:36:22.825Z,2.10
2022-09-22T00:38:52.613Z,2.78
2022-09-22T00:41:23.294Z,2.60
2022-09-22T00:44:12.668Z,2.70
2022-09-22T00:46:42.075Z,2.63
2022-09-22T00:49:10.521Z,2.80
2022-09-22T00:51:41.980Z,2.20
2022-09-22T00:54:15.679Z,2.78
2022-09-22T00:56:48.705Z,2.50
2022-09-22T00:59:20.157Z,2.45
2022-09-22T01:01:49.212Z,2.60
2022-09-22T01:04:17.316Z,2.65
2022-09-22T01:06:45.302Z,2.30
2022-09-22T01:09:15.636Z,2.00
2022-09-22T01:11:44.261Z,2.53
2022-09-22T01:14:23.198Z,2.80
2022-09-22T01:16:57.915Z,2.42
2022-09-22T01:20:03.346Z,2.30
2022-09-22T01:22:47.616Z,2.30
2022-09-22T01:25:39.934Z,2.17
2022-09-22T01:28:23.989Z,2.35
2022-09-22T01:30:59.207Z,2.13
2022-09-22T01:33:39.242Z,2.30
2022-09-22T01:36:17.619Z,2.35
2022-09-22T01:38:58.584Z,2.85
2022-09-22T01:41:43.259Z,2.55
2022-09-22T01:44:16.602Z,2.35
2022-09-22T01:46:54.120Z,2.47
2022-09-22T01:49:24.050Z,2.53
2022-09-22T01:51:56.315Z,2.30
2022-09-22T01:54:29.678Z,2.30
2022-09-22T01:57:01.777Z,2.38
2022-09-22T01:59:34.919Z,2.63
2022-09-22T02:02:08.271Z,2.20
2022-09-22T02:04:42.016Z,2.05
2022-09-22T02:07:16.815Z,2.15
2022-09-22T02:09:48.398Z,2.25
2022-09-22T02:12:18.624Z,1.70
2022-09-22T02:14:47.061Z,2.15
2022-09-22T02:17:17.390Z,1.75
2022-09-22T02:19:45.670Z,3.10
2022-09-22T02:22:14.142Z,2.10
2022-09-22T02:24:43.659Z,1.75
2022-09-22T02:27:16.486Z,1.77
2022-09-22T02:29:50.766Z,2.33
2022-09-22T02:32:20.844Z,2.72
2022-09-22T02:34:49.409Z,2.10
2022-09-22T02:37:23.471Z,2.22
2022-09-22T02:40:00.901Z,2.13
2022-09-22T02:42:32.141Z,2.50
2022-09-22T02:45:06.476Z,2.08
2022-09-22T02:47:41.470Z,2.30
2022-09-22T02:50:12.246Z,2.03
2022-09-22T02:52:41.159Z,2.05
2022-09-22T02:55:10.980Z,2.28
2022-09-22T02:57:38.836Z,2.35
2022-09-22T03:00:07.940Z,1.85
2022-09-22T03:02:37.364Z,2.45
2022-09-22T03:05:05.826Z,2.38
2022-09-22T03:07:33.855Z,2.20
2022-09-22T03:10:01.768Z,2.60
2022-09-22T03:12:29.701Z,1.90
2022-09-22T03:14:57.646Z,2.25
2022-09-22T03:17:25.571Z,2.60
2022-09-22T03:19:54.862Z,2.00
2022-09-22T03:22:22.798Z,2.25
2022-09-22T03:24:50.702Z,2.60
2022-09-22T03:27:18.761Z,2.20
2022-09-22T03:29:46.678Z,2.53
2022-09-22T03:32:14.573Z,2.88
2022-09-22T03:34:42.481Z,2.88
2022-09-22T03:37:11.770Z,2.70
2022-09-22T03:39:39.741Z,2.40
2022-09-22T03:42:08.546Z,2.17
2022-09-22T03:44:36.576Z,2.63
2022-09-22T03:47:04.918Z,2.53
2022-09-22T03:49:33.029Z,2.65
2022-09-22T03:52:00.978Z,2.97
2022-09-22T03:54:30.502Z,2.78
2022-09-22T03:56:58.875Z,3.17
2022-09-22T03:59:26.792Z,2.90
2022-09-22T04:01:58.229Z,2.92
2022-09-22T04:04:26.472Z,3.40
2022-09-22T04:06:54.400Z,2.97
2022-09-22T04:09:22.388Z,2.75
2022-09-22T04:11:51.683Z,3.15
2022-09-22T04:14:19.630Z,3.05
2022-09-22T04:16:47.563Z,3.10
2022-09-22T04:19:15.599Z,3.25
2022-09-22T04:21:43.489Z,3.00
2022-09-22T04:24:11.532Z,3.22
2022-09-22T04:26:47.787Z,2.97
2022-09-22T04:29:25.861Z,3.60
2022-09-22T04:31:55.064Z,3.53
2022-09-22T04:34:22.985Z,4.45
2022-09-22T04:36:50.976Z,3.97
2022-09-22T04:39:23.051Z,3.95
2022-09-22T04:41:52.379Z,4.25
2022-09-22T04:44:20.333Z,4.35
2022-09-22T04:46:50.284Z,4.20
2022-09-22T04:49:18.910Z,4.53
2022-09-22T04:51:46.908Z,4.40
2022-09-22T04:54:14.921Z,4.03
2022-09-22T04:56:42.855Z,4.57
2022-09-22T04:59:11.904Z,4.35
2022-09-22T05:01:39.923Z,4.68
2022-09-22T05:04:09.385Z,3.72
2022-09-22T05:06:37.466Z,3.97
2022-09-22T05:09:05.824Z,4.05
2022-09-22T05:11:34.352Z,4.15
2022-09-22T05:14:02.237Z,3.90
2022-09-22T05:16:32.330Z,3.58
2022-09-22T05:19:00.407Z,3.83
2022-09-22T05:21:30.056Z,3.72
2022-09-22T05:23:58.091Z,3.70
2022-09-22T05:26:26.160Z,3.67
2022-09-22T05:28:54.264Z,3.53
2022-09-22T05:31:22.270Z,3.20
2022-09-22T05:33:50.345Z,3.20
2022-09-22T05:36:18.377Z,3.53
2022-09-22T05:38:47.685Z,3.15
2022-09-22T05:41:15.580Z,3.00
2022-09-22T05:43:43.503Z,3.00
2022-09-22T05:46:11.554Z,2.47
2022-09-22T05:48:39.542Z,2.22
2022-09-22T05:51:07.412Z,2.40
2022-09-22T05:53:35.330Z,2.88
2022-09-22T05:56:04.869Z,2.58
2022-09-22T05:58:33.127Z,2.30
2022-09-22T06:01:01.103Z,2.38
2022-09-22T06:03:29.082Z,2.47
2022-09-22T06:05:57.012Z,2.10
2022-09-22T06:08:24.959Z,2.50
2022-09-22T06:10:52.907Z,2.33
2022-09-22T06:13:22.214Z,2.65
2022-09-22T06:15:50.102Z,2.80
2022-09-22T06:18:24.133Z,3.08
2022-09-22T06:20:52.590Z,2.05
2022-09-22T06:23:20.492Z,2.20
2022-09-22T06:25:48.466Z,2.13
2022-09-22T06:28:16.814Z,2.38
2022-09-22T06:30:46.908Z,2.15
2022-09-22T06:33:14.808Z,2.35
2022-09-22T06:35:42.904Z,2.08
2022-09-22T06:38:14.859Z,2.13
2022-09-22T06:40:43.620Z,2.00
2022-09-22T06:43:22.676Z,2.33
2022-09-22T06:45:53.248Z,2.50
2022-09-22T06:48:23.967Z,2.08
2022-09-22T06:50:53.703Z,2.20
2022-09-22T06:53:25.566Z,2.33
2022-09-22T06:55:54.958Z,3.00
2022-09-22T06:58:23.334Z,2.45
2022-09-22T07:00:53.809Z,2.53
2022-09-22T07:03:26.387Z,2.05
2022-09-22T07:05:56.576Z,2.10
2022-09-22T07:08:25.865Z,2.50
2022-09-22T07:10:56.266Z,2.38
2022-09-22T07:13:24.526Z,2.72
2022-09-22T07:15:55.397Z,2.10
2022-09-22T07:18:23.355Z,2.17
2022-09-22T07:20:51.255Z,3.28
2022-09-22T07:23:21.086Z,2.45
2022-09-22T07:25:54.184Z,2.80
2022-09-22T07:28:22.594Z,3.20
2022-09-22T07:30:50.545Z,2.95
2022-09-22T07:33:19.855Z,3.35
2022-09-22T07:35:47.843Z,3.05
2022-09-22T07:38:16.349Z,3.10
2022-09-22T07:40:53.006Z,3.20
2022-09-22T07:43:20.923Z,3.00
2022-09-22T07:45:55.670Z,3.42
2022-09-22T07:48:37.620Z,3.20
2022-09-22T07:51:06.656Z,3.75
2022-09-22T07:53:34.728Z,3.95
2022-09-22T07:56:07.402Z,3.15
2022-09-22T07:58:35.445Z,3.90
2022-09-22T08:01:07.849Z,3.55
2022-09-22T08:03:38.116Z,3.22
2022-09-22T08:06:10.378Z,3.40
2022-09-22T08:08:42.592Z,3.65
2022-09-22T08:11:15.053Z,3.45
2022-09-22T08:13:44.415Z,3.00
2022-09-22T08:16:12.364Z,3.42
2022-09-22T08:18:41.712Z,3.17
2022-09-22T08:21:09.772Z,3.10
2022-09-22T08:23:38.569Z,3.42
2022-09-22T08:26:08.523Z,3.45
2022-09-22T08:28:36.747Z,3.28
2022-09-22T08:31:04.818Z,3.88
2022-09-22T08:33:32.974Z,3.45
2022-09-22T08:36:03.680Z,3.42
2022-09-22T08:38:34.092Z,3.22
2022-09-22T08:41:15.165Z,3.10
2022-09-22T08:43:50.409Z,3.90
2022-09-22T08:46:18.433Z,4.05
2022-09-22T08:49:07.554Z,3.75
2022-09-22T08:51:53.488Z,4.50
2022-09-22T08:54:23.251Z,4.38
2022-09-22T08:57:01.895Z,4.35
2022-09-22T08:59:36.027Z,4.60
2022-09-22T09:02:32.478Z,4.03
2022-09-22T09:05:42.002Z,4.07
2022-09-22T09:08:30.410Z,4.63
2022-09-22T09:11:08.058Z,4.38
2022-09-22T09:13:49.215Z,3.85
2022-09-22T09:16:34.240Z,3.63
2022-09-22T09:19:12.129Z,3.72
2022-09-22T09:21:44.899Z,4.03
2022-09-22T09:27:16.657Z,3.65
2022-09-22T09:29:54.100Z,3.22
2022-09-22T09:32:33.229Z,3.40
2022-09-22T09:35:01.515Z,3.17
2022-09-22T09:37:30.474Z,3.67
2022-09-22T09:40:04.552Z,3.20
2022-09-22T09:42:36.812Z,3.10
2022-09-22T09:45:05.790Z,3.45
2022-09-22T09:47:48.448Z,3.60
2022-09-22T09:50:17.164Z,3.20
2022-09-22T09:52:46.192Z,3.50
2022-09-22T09:55:27.338Z,2.95
2022-09-22T09:58:07.754Z,3.13
2022-09-22T10:00:43.194Z,4.03
2022-09-22T10:03:17.499Z,3.35
2022-09-22T10:06:00.239Z,3.30
2022-09-22T10:08:32.210Z,3.38
2022-09-22T10:11:02.057Z,3.42
2022-09-22T10:13:34.224Z,3.50
2022-09-22T10:16:08.527Z,4.22
2022-09-22T10:18:40.480Z,3.42
2022-09-22T10:21:15.878Z,3.45
2022-09-22T10:23:44.880Z,3.33
2022-09-22T10:26:23.001Z,2.70
2022-09-22T10:29:18.280Z,3.50
2022-09-22T10:32:16.112Z,3.15
2022-09-22T10:34:47.242Z,3.22
2022-09-22T10:37:18.944Z,3.20
2022-09-22T10:39:50.657Z,3.05
2022-09-22T10:42:31.956Z,3.28
2022-09-22T10:45:03.660Z,2.65
2022-09-22T10:47:44.529Z,2.50
2022-09-22T10:50:37.355Z,3.30
2022-09-22T10:53:25.639Z,2.78
2022-09-22T10:56:04.201Z,3.30
2022-09-22T10:59:03.815Z,3.08
2022-09-22T11:01:43.396Z,3.03
2022-09-22T11:04:26.988Z,2.90
2022-09-22T11:07:24.338Z,3.05
2022-09-22T11:10:15.087Z,2.83
2022-09-22T11:12:51.377Z,2.60
2022-09-22T11:15:45.863Z,3.00
2022-09-22T11:18:44.290Z,3.15
2022-09-22T11:21:31.299Z,2.75
2022-09-22T11:24:18.921Z,2.30
2022-09-22T11:26:49.703Z,2.38
2022-09-22T11:29:41.795Z,2.75
2022-09-22T11:32:25.955Z,2.22
2022-09-22T11:35:23.319Z,2.47
2022-09-22T11:38:03.745Z,2.65
2022-09-22T11:40:45.040Z,2.92
2022-09-22T11:43:31.484Z,2.35
2022-09-22T11:46:08.766Z,3.00
2022-09-22T11:48:56.197Z,2.80
2022-09-22T11:51:34.816Z,3.00
2022-09-22T11:54:25.928Z,3.10
2022-09-22T11:56:58.005Z,2.60
2022-09-22T11:59:36.613Z,2.30
2022-09-22T12:02:15.307Z,3.20
2022-09-22T12:04:49.220Z,2.50
2022-09-22T12:07:20.382Z,2.80
2022-09-22T12:09:54.071Z,2.63
2022-09-22T12:12:25.315Z,2.67
2022-09-22T12:15:00.199Z,2.75
2022-09-22T12:17:36.775Z,2.28
2022-09-22T12:20:22.998Z,1.90
2022-09-22T12:23:34.785Z,1.88
2022-09-22T12:26:06.350Z,1.92
2022-09-22T12:28:40.521Z,1.50
2022-09-22T12:31:12.699Z,1.70
2022-09-22T12:33:47.845Z,1.30
2022-09-22T12:36:18.223Z,1.27
2022-09-22T12:38:46.954Z,1.40
2022-09-22T12:41:19.455Z,1.70
2022-09-22T12:43:48.756Z,1.40
2022-09-22T12:46:25.852Z,1.25
2022-09-22T12:48:54.015Z,1.50
2022-09-22T12:51:34.300Z,1.77
2022-09-22T12:54:48.017Z,1.63
2022-09-22T12:57:28.217Z,1.25
2022-09-22T12:59:59.756Z,1.70
2022-09-22T13:02:30.992Z,1.75
2022-09-22T13:05:36.976Z,1.23
2022-09-22T13:08:06.339Z,1.30
2022-09-22T13:10:52.635Z,0.98
2022-09-22T13:13:33.813Z,1.80
2022-09-22T13:16:03.634Z,1.27
2022-09-22T13:18:34.502Z,1.50
2022-09-22T13:21:03.988Z,1.65
2022-09-22T13:23:33.401Z,1.42
2022-09-22T13:26:08.562Z,1.70
2022-09-22T13:28:36.559Z,1.55
2022-09-22T13:31:10.886Z,1.92
2022-09-22T13:33:38.889Z,1.60
2022-09-22T13:36:09.792Z,1.88
2022-09-22T13:38:43.816Z,1.70
2022-09-22T13:41:13.679Z,1.90
2022-09-22T13:43:45.554Z,1.80
2022-09-22T13:46:22.572Z,1.90
2022-09-22T13:48:52.447Z,1.90
2022-09-22T13:51:20.431Z,1.70
2022-09-22T13:53:53.549Z,1.70
2022-09-22T13:56:23.500Z,1.60
2022-09-22T13:58:54.471Z,1.95
2022-09-22T14:01:24.346Z,1.63
2022-09-22T14:03:53.887Z,2.10
2022-09-22T14:06:24.082Z,1.70
2022-09-22T14:08:55.124Z,1.60
2022-09-22T14:11:25.118Z,2.00
2022-09-22T14:14:02.672Z,1.92
2022-09-22T14:16:35.747Z,1.42
2022-09-22T14:19:07.651Z,1.45
2022-09-22T14:21:42.763Z,1.52
2022-09-22T14:24:14.007Z,1.60
2022-09-22T14:26:47.566Z,1.27
2022-09-22T14:29:21.331Z,1.65
2022-09-22T14:31:53.679Z,1.75
2022-09-22T14:34:26.483Z,1.50
2022-09-22T14:36:56.279Z,1.30
2022-09-22T14:39:31.907Z,1.30
2022-09-22T14:42:09.250Z,1.80
2022-09-22T14:44:44.258Z,1.50
2022-09-22T14:47:25.808Z,1.75
2022-09-22T14:50:18.814Z,1.60
2022-09-22T14:52:55.836Z,1.52
2022-09-22T14:55:35.949Z,1.13
2022-09-22T14:58:08.599Z,1.33
2022-09-22T15:00:55.492Z,1.48
2022-09-22T15:03:27.781Z,1.70
2022-09-22T15:05:59.940Z,1.10
2022-09-22T15:08:28.894Z,1.27
2022-09-22T15:10:59.456Z,1.20
2022-09-22T15:13:40.068Z,1.30
2022-09-22T15:16:40.431Z,1.10
2022-09-22T15:19:13.178Z,1.50
2022-09-22T15:21:48.499Z,1.55
2022-09-22T15:24:26.196Z,1.42
2022-09-22T15:26:57.342Z,1.40
2022-09-22T15:29:25.283Z,1.50
2022-09-22T15:31:56.019Z,1.30
2022-09-22T15:34:23.979Z,1.20
2022-09-22T15:36:53.226Z,1.27
2022-09-22T15:39:23.185Z,1.20
2022-09-22T15:41:51.745Z,1.50
2022-09-22T15:44:19.732Z,1.52
2022-09-22T15:46:51.396Z,1.30
2022-09-22T15:49:26.200Z,1.70
2022-09-22T15:51:55.960Z,1.30
2022-09-22T15:54:25.133Z,1.35
2022-09-22T15:56:55.097Z,1.35
2022-09-22T15:59:28.125Z,1.50
2022-09-22T16:01:57.219Z,1.50
2022-09-22T16:04:30.104Z,1.60
2022-09-22T16:07:01.228Z,1.35
2022-09-22T16:09:29.473Z,1.20
2022-09-22T16:11:57.469Z,1.30
2022-09-22T16:14:25.444Z,1.33
2022-09-22T16:16:53.456Z,1.25
2022-09-22T16:19:21.434Z,1.33
2022-09-22T16:21:53.006Z,1.50
2022-09-22T16:24:22.747Z,1.48
2022-09-22T16:26:51.372Z,1.48
2022-09-22T16:29:19.307Z,1.40
2022-09-22T16:31:47.464Z,1.10
2022-09-22T16:34:15.400Z,1.48
2022-09-22T16:36:44.645Z,1.75
2022-09-22T16:39:13.975Z,1.40
2022-09-22T16:41:45.761Z,1.30
2022-09-22T16:44:13.896Z,1.50
2022-09-22T16:46:41.901Z,1.02
2022-09-22T16:49:11.750Z,1.33
2022-09-22T16:51:41.921Z,1.33
2022-09-22T16:54:14.322Z,1.30
2022-09-22T16:56:46.151Z,1.63
2022-09-22T16:59:16.687Z,1.40
2022-09-22T17:01:44.938Z,1.27
2022-09-22T17:04:15.894Z,1.10
2022-09-22T17:06:44.578Z,1.08
2022-09-22T17:09:14.111Z,1.40
2022-09-22T17:11:45.963Z,1.40
2022-09-22T17:14:15.642Z,1.27
2022-09-22T17:16:45.018Z,1.35
2022-09-22T17:19:15.542Z,1.52
2022-09-22T17:21:44.113Z,1.38
2022-09-22T17:24:12.039Z,1.40
2022-09-22T17:26:47.439Z,1.33
2022-09-22T17:29:17.916Z,1.25
2022-09-22T17:31:48.237Z,1.65
2022-09-22T17:34:17.179Z,1.20
2022-09-22T17:36:45.905Z,1.95
2022-09-22T17:39:14.072Z,2.17
2022-09-22T17:41:45.573Z,1.92
2022-09-22T17:44:14.733Z,1.55
2022-09-22T17:46:58.136Z,1.90
2022-09-22T17:49:43.612Z,1.30
2022-09-22T17:52:29.708Z,1.20
2022-09-22T17:55:12.004Z,1.40
2022-09-22T17:57:42.147Z,1.70
2022-09-22T18:00:12.331Z,1.48
2022-09-22T18:02:41.984Z,1.40
2022-09-22T18:05:12.131Z,1.42
2022-09-22T18:07:40.700Z,1.30
2022-09-22T18:10:11.112Z,1.58
2022-09-22T18:12:39.481Z,1.40
2022-09-22T18:15:08.431Z,1.42
2022-09-22T18:17:41.682Z,1.30
2022-09-22T18:20:13.143Z,1.40
2022-09-22T18:22:41.751Z,1.60
2022-09-22T18:25:10.470Z,1.50
2022-09-22T18:27:40.024Z,1.65
2022-09-22T18:30:10.080Z,1.50
2022-09-22T18:32:40.200Z,1.58
2022-09-22T18:35:08.930Z,1.35
2022-09-22T18:37:38.286Z,1.30
2022-09-22T18:40:06.849Z,1.60
2022-09-22T18:42:36.696Z,1.30
2022-09-22T18:45:05.306Z,1.30
2022-09-22T18:47:39.722Z,1.45
2022-09-22T18:50:08.709Z,1.30
2022-09-22T18:52:42.218Z,1.40
2022-09-22T18:55:14.096Z,1.50
2022-09-22T18:57:42.038Z,1.67
2022-09-22T19:00:15.024Z,1.20
2022-09-22T19:02:43.090Z,1.35
2022-09-22T19:05:11.312Z,1.40
2022-09-22T19:07:43.824Z,1.77
2022-09-22T19:10:14.400Z,1.52
2022-09-22T19:12:43.130Z,1.60
2022-09-22T19:15:15.252Z,1.45
2022-09-22T19:17:45.154Z,1.40
2022-09-22T19:20:15.043Z,1.52
2022-09-22T19:22:44.842Z,1.65
2022-09-22T19:25:13.218Z,1.92
2022-09-22T19:27:41.275Z,1.70
2022-09-22T19:30:10.143Z,1.67
2022-09-22T19:32:38.148Z,1.50
2022-09-22T19:35:07.822Z,1.52
2022-09-22T19:37:35.797Z,1.65
2022-09-22T19:40:06.551Z,1.30
2022-09-22T19:42:40.112Z,1.52
2022-09-22T19:45:09.075Z,1.60
2022-09-22T19:47:37.665Z,1.80
2022-09-22T19:50:07.910Z,1.63
2022-09-22T19:52:36.686Z,1.55
2022-09-22T19:55:07.120Z,1.73
2022-09-22T19:57:41.133Z,1.60
2022-09-22T20:00:10.563Z,1.90
2022-09-22T20:02:42.147Z,1.83
2022-09-22T20:05:19.664Z,1.55
2022-09-22T20:07:47.808Z,1.65
2022-09-22T20:10:19.029Z,1.85
2022-09-22T20:12:47.262Z,1.80
2022-09-22T20:15:15.825Z,2.10
2022-09-22T20:17:46.206Z,1.50
2022-09-22T20:20:15.703Z,1.80
2022-09-22T20:22:43.864Z,1.83
2022-09-22T20:25:24.158Z,2.05
2022-09-22T20:27:52.429Z,2.13
2022-09-22T20:30:20.378Z,1.65
2022-09-22T20:32:48.762Z,1.80
2022-09-22T20:35:19.071Z,1.60
2022-09-22T20:37:46.986Z,2.17
2022-09-22T20:40:18.615Z,1.90
2022-09-22T20:42:48.776Z,2.10
2022-09-22T20:45:18.274Z,1.92
2022-09-22T20:47:46.248Z,2.00
2022-09-22T20:50:14.338Z,2.35
2022-09-22T20:52:43.550Z,1.80
2022-09-22T20:55:12.344Z,2.00
2022-09-22T20:57:40.892Z,2.50
2022-09-22T21:00:12.933Z,1.85
2022-09-22T21:02:41.113Z,2.33
2022-09-22T21:05:09.660Z,1.90
2022-09-22T21:07:37.830Z,2.38
2022-09-22T21:10:24.359Z,1.90
2022-09-22T21:12:55.063Z,1.70
2022-09-22T21:15:24.582Z,1.98
2022-09-22T21:17:53.006Z,2.05
2022-09-22T21:20:21.614Z,2.03
2022-09-22T21:22:49.594Z,1.73
2022-09-22T21:25:17.743Z,2.22
2022-09-22T21:27:46.424Z,1.95
2022-09-22T21:30:15.058Z,1.95
2022-09-22T21:32:44.386Z,1.92
2022-09-22T21:35:16.666Z,2.20
2022-09-22T21:37:44.824Z,2.28
2022-09-22T21:40:13.354Z,2.03
2022-09-22T21:42:41.442Z,2.30
2022-09-22T21:45:10.475Z,2.20
2022-09-22T21:47:38.369Z,2.25
2022-09-22T21:50:09.323Z,2.28
2022-09-22T21:52:38.578Z,2.42
2022-09-22T21:55:07.789Z,2.15
2022-09-22T21:57:35.876Z,2.30
2022-09-22T22:00:05.748Z,1.98
2022-09-22T22:02:53.674Z,2.42
2022-09-22T22:05:22.998Z,2.00
2022-09-22T22:07:51.004Z,2.58
2022-09-22T22:10:19.242Z,1.98
2022-09-22T22:12:47.268Z,2.45
2022-09-22T22:15:15.635Z,2.15
2022-09-22T22:17:43.613Z,2.28
2022-09-22T22:20:11.523Z,2.03
2022-09-22T22:22:40.821Z,2.10
2022-09-22T22:25:13.754Z,2.20
2022-09-22T22:27:45.530Z,2.20
2022-09-22T22:30:14.454Z,2.30
2022-09-22T22:32:42.454Z,2.47
2022-09-22T22:35:11.672Z,2.03
2022-09-22T22:37:41.032Z,2.63
2022-09-22T22:40:10.099Z,2.72
2022-09-22T22:42:38.293Z,2.30
2022-09-22T22:45:06.943Z,2.00
2022-09-22T22:47:35.007Z,2.22
2022-09-22T22:50:03.013Z,2.13
2022-09-22T22:52:31.304Z,2.53
2022-09-22T22:55:00.575Z,2.25
2022-09-22T22:57:28.967Z,2.45
2022-09-22T22:59:57.327Z,2.22
2022-09-22T23:02:25.713Z,2.47
2022-09-22T23:04:54.329Z,2.30
2022-09-22T23:07:22.301Z,1.85
2022-09-22T23:10:06.117Z,1.88
2022-09-22T23:12:36.334Z,2.50
2022-09-22T23:15:05.054Z,2.38
2022-09-22T23:17:33.493Z,2.10
2022-09-22T23:20:01.419Z,2.30
2022-09-22T23:22:30.680Z,2.33
2022-09-22T23:24:58.753Z,2.42
2022-09-22T23:27:26.893Z,2.42
2022-09-22T23:29:57.229Z,2.45
2022-09-22T23:32:25.616Z,2.25
2022-09-22T23:34:53.643Z,2.72
2022-09-22T23:37:21.682Z,2.20
2022-09-22T23:39:50.382Z,2.47
2022-09-22T23:42:18.303Z,2.35
2022-09-22T23:44:46.388Z,2.00
2022-09-22T23:47:16.357Z,2.47
2022-09-22T23:49:44.461Z,2.33
2022-09-22T23:52:12.579Z,2.33
2022-09-22T23:54:40.462Z,2.15
2022-09-22T23:57:08.389Z,2.30
2022-09-22T23:59:36.290Z,2.13
